Relevés horaires Chievres (Belgique)


Relevés horaires à Chievres - Jeudi 17 Mars 2022
Heure UTC1 Température [°C] Vent [km/h] Hum. [%] Pres.4 [hPa] Visi. [Km] Nébu. [octa] Préc.5 [mm] Cond.
2m. Res. Ros. Dir.2 Vit. Moy. Raf.3
23:00 2.5 2.5 1.7 NNO 1.9 -- 1.9 94 1038.7(1.5/3h) 12 -- -- --
22:00 3.7 3.7 2.4 NNO 0.0 -- 0.0 91 1038.2(2.1/3h) 12 -- -- --
21:00 4.6 4.6 3.1 NNO 1.9 -- 1.9 90 1037.9(2.4/3h) 17 -- -- --
20:00 5.0 5.0 3.3 NNO 1.9 -- 0.0 89 1037(2.4/3h) 20 -- -- --
19:00 6.4 6.4 3.9 NNO 0.0 -- 0.0 84 1036(2.0/3h) 20 -- -- --
18:00 8.0 8.0 3.8 NNO 1.9 -- 9.3 75 1035.2(1.8/3h) 20 -- -- --
17:00 9.1 9.1 4.5 NNO 1.9 -- 3.7 73 1034.5(1.3/3h) 20 -- -- --
16:00 10.1 10.1 3.3 NNO 1.9 -- 1.9 63 1033.9(0.8/3h) 20 -- -- --
15:00 9.6 9.6 3.2 NNO 1.9 -- 9.3 64 1033.2(0.4/3h) 20 -- -- --
14:00 9.2 9.2 3.1 NNO 1.9 -- 5.6 66 1033(0.6/3h) 20 -- -- --
13:00 8.8 8.8 3.2 NNO 1.9 -- 9.3 68 1033(1.6/3h) 20 -- -- --
12:00 8.3 7.6 3.3 N 5.6 -- 18.5 71 1032.9(2.2/3h) 20 -- -- --
11:00 8.0 6.8 3.1 NNO 7.4 -- 11.1 71 1032.4(2.7/3h) 20 -- -- --
10:00 7.6 5.9 3.2 NNO 9.3 -- 13.0 74 1031.4(3.1/3h) 20 -- -- --
09:00 7.4 6.1 3.4 NO 7.4 -- 18.5 76 1030.7(3.3/3h) 20 -- -- --
08:00 7.3 5.5 3.7 NNO 9.3 -- 13.0 78 1029.5(3.3/3h) 20 -- -- --
07:00 7.3 6 3.8 NO 7.4 -- 14.8 78 1028.2(3.5/3h) 20 -- -- --
06:00 7.3 5.2 4.0 NO 11.1 -- 24.1 80 1027.2(3.7/3h) 20 -- -- --
05:00 7.4 5.7 4.7 ONO 9.3 -- 18.5 83 1026.2(3.7/3h) 20 -- -- --
04:00 8.0 5.7 4.9 ONO 13.0 -- 18.5 81 1024.7(3.7/3h) 19 -- -- --
03:00 8.4 6.9 5.7 ONO 9.3 -- 24.1 83 1023.5(3.4/3h) 13 -- -- --
02:00 8.8 6.7 6.5 ONO 13.0 -- 24.1 85 1022.2(2.6/3h) 9 -- -- Du brouillard ou du brouillard glacé (plus correctement designé sous le nom de brume) est observé et la visibilité n'est ni inférieure à 5/8 de mille ni supérieure à 6 milles
01:00 10.6 8.9 8.8 O 13.0 -- 18.5 89 1020.7(1.6/3h) 10 -- -- --
00:00 11.4 10.4 9.2 SO 9.3 -- 14.8 86 1019.7(1.0/3h) 8 -- -- Du brouillard ou du brouillard glacé (plus correctement designé sous le nom de brume) est observé et la visibilité n'est ni inférieure à 5/8 de mille ni supérieure à 6 milles

1 Coordinated Universal Time. Actuellement il est 20:00 locale et 19:00 UTC.

2 Le vent souffle depuis la direction indiquée vers la direction oposée.

3 Les rafales max. sont disponible 40 min après l'heure du relevé.

4 Pour les stations d'altitude (plus de 600m) le géopotentiel du niveau le plus proche de la pression obligatoire est indiqué.

5 Les stations disposant d'un diffuseur peuvent indiquer "trace". Cela signifie que des précipitations ont touchés le sol mais que la quantité est inférieure à 0.1 mm.

Récapitulatif de la journée
Température [°C] Vent [km/h] Ensoleillement4 [h] Precipitations totale5 [mm] Pression [Hpa]
Min1 Max.2 Moy.3 Max. Min Max.
7.3 10.1 0 24.1 0 h 0 min 0 1019.7 1038.7

1 Température minimale relevée entre 18:00 UTC la veille et 18:00 UTC le jour donné.

2 Température maximale relevée entre 06:00 UTC le jour donné et 06:00 UTC le lendemain.

3 Vent moyen de la journée basé sur les relevés horaires.

4 Ensoleillement en heures relevé entre 06:00 UTC la veille et 06:00 UTC le jour donné.

5 Précipitations totales tombées entre 06:00 UTC la jour donné et 06:00 UTC le lendemain.

Graphiques horaires